createdAt,value
2018-03-08T00:01:11.613Z,98508.47
2018-03-08T00:03:39.940Z,98509.39
2018-03-08T00:06:08.293Z,98509.80
2018-03-08T00:08:36.603Z,98511.94
2018-03-08T00:11:04.914Z,98512.86
2018-03-08T00:13:33.241Z,98512.07
2018-03-08T00:16:01.564Z,98514.97
2018-03-08T00:18:29.884Z,98525.56
2018-03-08T00:20:58.194Z,98525.46
2018-03-08T00:23:26.614Z,98528.09
2018-03-08T00:25:54.904Z,98522.98
2018-03-08T00:28:23.292Z,98527.72
2018-03-08T00:30:51.595Z,98527.23
2018-03-08T00:33:19.948Z,98535.99
2018-03-08T00:35:48.251Z,98533.31
2018-03-08T00:38:16.601Z,98526.16
2018-03-08T00:40:44.988Z,98525.89
2018-03-08T00:43:13.315Z,98539.97
2018-03-08T00:45:41.617Z,98541.38
2018-03-08T00:48:10.047Z,98540.42
2018-03-08T00:50:38.446Z,98540.68
2018-03-08T00:53:06.878Z,98538.33
2018-03-08T00:55:35.230Z,98538.89
2018-03-08T00:58:03.537Z,98541.09
2018-03-08T01:00:31.857Z,98533.45
2018-03-08T01:03:00.174Z,98538.39
2018-03-08T01:05:28.490Z,98536.13
2018-03-08T01:07:56.869Z,98544.81
2018-03-08T01:10:25.201Z,98540.94
2018-03-08T01:12:53.515Z,98539.25
2018-03-08T01:15:21.929Z,98533.33
2018-03-08T01:17:50.446Z,98533.89
2018-03-08T01:20:18.836Z,98539.72
2018-03-08T01:22:47.140Z,98539.20
2018-03-08T01:25:15.523Z,98537.72
2018-03-08T01:27:43.837Z,98542.69
2018-03-08T01:30:12.220Z,98539.45
2018-03-08T01:32:40.539Z,98543.66
2018-03-08T01:35:08.845Z,98546.42
2018-03-08T01:37:37.155Z,98545.86
2018-03-08T01:40:05.509Z,98548.92
2018-03-08T01:42:33.816Z,98543.92
2018-03-08T01:45:02.198Z,98555.27
2018-03-08T01:47:30.492Z,98549.83
2018-03-08T01:49:58.823Z,98548.65
2018-03-08T01:52:27.242Z,98548.81
2018-03-08T01:54:55.697Z,98554.63
2018-03-08T01:57:24.010Z,98548.39
2018-03-08T01:59:52.405Z,98553.95
2018-03-08T02:02:20.755Z,98559.38
2018-03-08T02:04:49.049Z,98562.70
2018-03-08T02:07:17.373Z,98556.96
2018-03-08T02:09:45.759Z,98557.05
2018-03-08T02:12:14.154Z,98561.52
2018-03-08T02:14:42.542Z,98555.16
2018-03-08T02:17:10.869Z,98553.92
2018-03-08T02:19:39.157Z,98562.52
2018-03-08T02:22:07.751Z,98560.75
2018-03-08T02:24:36.049Z,98568.31
2018-03-08T02:27:04.593Z,98570.75
2018-03-08T02:29:32.905Z,98572.31
2018-03-08T02:32:01.285Z,98570.34
2018-03-08T02:34:29.599Z,98570.34
2018-03-08T02:36:57.908Z,98572.30
2018-03-08T02:39:26.270Z,98584.46
2018-03-08T02:41:54.623Z,98575.81
2018-03-08T02:44:22.935Z,98577.38
2018-03-08T02:46:51.249Z,98581.17
2018-03-08T02:49:19.854Z,98579.76
2018-03-08T02:51:48.272Z,98578.23
2018-03-08T02:54:16.555Z,98582.97
2018-03-08T02:56:44.941Z,98589.30
2018-03-08T02:59:13.303Z,98581.36
2018-03-08T03:01:41.607Z,98587.97
2018-03-08T03:04:09.947Z,98591.37
2018-03-08T03:06:38.300Z,98586.84
2018-03-08T03:09:06.617Z,98594.42
2018-03-08T03:11:34.935Z,98587.86
2018-03-08T03:14:03.261Z,98581.91
2018-03-08T03:16:31.667Z,98583.17
2018-03-08T03:18:59.989Z,98587.54
2018-03-08T03:21:28.302Z,98582.73
2018-03-08T03:23:56.692Z,98589.73
2018-03-08T03:26:25.114Z,98590.25
2018-03-08T03:28:53.454Z,98590.16
2018-03-08T03:31:21.795Z,98588.64
2018-03-08T03:33:50.193Z,98601.00
2018-03-08T03:36:18.774Z,98598.73
2018-03-08T03:38:47.089Z,98602.65
2018-03-08T03:41:16.373Z,98603.50
2018-03-08T03:43:44.687Z,98601.94
2018-03-08T03:46:13.113Z,98609.88
2018-03-08T03:48:41.469Z,98606.64
2018-03-08T03:51:09.863Z,98605.73
2018-03-08T03:53:38.174Z,98607.81
2018-03-08T03:56:06.482Z,98609.72
2018-03-08T03:58:34.875Z,98610.47
2018-03-08T04:01:10.659Z,98619.47
2018-03-08T04:03:38.990Z,98622.83
2018-03-08T04:06:07.374Z,98613.72
2018-03-08T04:08:35.666Z,98622.41
2018-03-08T04:11:03.977Z,98622.52
2018-03-08T04:13:32.351Z,98626.94
2018-03-08T04:16:00.740Z,98621.55
2018-03-08T04:18:29.054Z,98621.27
2018-03-08T04:20:57.415Z,98633.59
2018-03-08T04:23:25.730Z,98635.52
2018-03-08T04:25:54.064Z,98638.05
2018-03-08T04:28:22.378Z,98636.77
2018-03-08T04:30:50.707Z,98643.93
2018-03-08T04:33:19.030Z,98646.55
2018-03-08T04:35:47.349Z,98646.70
2018-03-08T04:38:15.758Z,98647.95
2018-03-08T04:40:44.198Z,98641.18
2018-03-08T04:43:12.493Z,98640.88
2018-03-08T04:45:40.932Z,98650.22
2018-03-08T04:48:09.232Z,98641.81
2018-03-08T04:50:37.549Z,98651.78
2018-03-08T04:53:05.901Z,98659.81
2018-03-08T04:55:34.232Z,98652.58
2018-03-08T04:58:02.594Z,98657.23
2018-03-08T05:00:30.972Z,98654.38
2018-03-08T05:02:59.287Z,98657.94
2018-03-08T05:05:27.617Z,98652.78
2018-03-08T05:07:55.948Z,98663.69
2018-03-08T05:10:24.345Z,98660.67
2018-03-08T05:12:52.676Z,98666.04
2018-03-08T05:15:21.057Z,98674.17
2018-03-08T05:17:49.381Z,98670.50
2018-03-08T05:20:18.218Z,98673.31
2018-03-08T05:22:46.618Z,98676.31
2018-03-08T05:25:14.918Z,98682.49
2018-03-08T05:27:43.251Z,98683.00
2018-03-08T05:30:11.589Z,98695.30
2018-03-08T05:32:40.100Z,98697.05
2018-03-08T05:35:08.422Z,98700.19
2018-03-08T05:37:36.754Z,98709.02
2018-03-08T05:40:05.187Z,98707.03
2018-03-08T05:42:33.516Z,98704.25
2018-03-08T05:45:01.817Z,98702.84
2018-03-08T05:47:30.966Z,98712.30
2018-03-08T05:49:59.338Z,98714.27
2018-03-08T05:52:27.726Z,98719.38
2018-03-08T05:54:56.045Z,98717.41
2018-03-08T05:57:24.390Z,98718.80
2018-03-08T05:59:52.705Z,98726.21
2018-03-08T06:02:21.202Z,98735.03
2018-03-08T06:04:49.524Z,98732.10
2018-03-08T06:07:17.927Z,98741.02
2018-03-08T06:09:47.099Z,98736.45
2018-03-08T06:12:15.436Z,98745.19
2018-03-08T06:14:43.976Z,98750.35
2018-03-08T06:17:12.291Z,98751.65
2018-03-08T06:19:40.622Z,98759.26
2018-03-08T06:22:09.188Z,98757.66
2018-03-08T06:24:37.497Z,98755.54
2018-03-08T06:27:05.842Z,98759.30
2018-03-08T06:29:34.229Z,98769.59
2018-03-08T06:32:02.559Z,98767.39
2018-03-08T06:34:30.901Z,98780.85
2018-03-08T06:36:59.205Z,98784.58
2018-03-08T06:39:27.685Z,98787.39
2018-03-08T06:41:56.003Z,98789.89
2018-03-08T06:44:24.375Z,98798.16
2018-03-08T06:46:52.771Z,98799.18
2018-03-08T06:49:21.091Z,98797.13
2018-03-08T06:51:49.411Z,98797.77
2018-03-08T06:54:17.851Z,98812.19
2018-03-08T06:56:46.156Z,98809.04
2018-03-08T06:59:14.515Z,98815.88
2018-03-08T07:01:42.837Z,98813.48
2018-03-08T07:04:11.241Z,98820.71
2018-03-08T07:06:39.603Z,98821.65
2018-03-08T07:09:07.920Z,98829.48
2018-03-08T07:11:36.265Z,98835.73
2018-03-08T07:14:04.592Z,98838.55
2018-03-08T07:16:32.957Z,98838.12
2018-03-08T07:19:01.372Z,98836.22
2018-03-08T07:21:29.716Z,98849.92
2018-03-08T07:23:58.046Z,98846.98
2018-03-08T07:26:26.441Z,98849.56
2018-03-08T07:28:54.754Z,98846.66
2018-03-08T07:31:23.094Z,98850.53
2018-03-08T07:33:51.401Z,98846.66
2018-03-08T07:36:19.791Z,98852.61
2018-03-08T07:38:48.196Z,98860.39
2018-03-08T07:41:16.503Z,98861.92
2018-03-08T07:43:44.804Z,98859.92
2018-03-08T07:46:13.132Z,98868.09
2018-03-08T07:48:41.461Z,98869.58
2018-03-08T07:51:09.785Z,98873.45
2018-03-08T07:53:38.098Z,98869.64
2018-03-08T07:56:06.525Z,98872.30
2018-03-08T07:58:34.839Z,98879.08
2018-03-08T08:01:03.178Z,98886.73
2018-03-08T08:03:31.512Z,98890.59
2018-03-08T08:06:11.693Z,98889.94
2018-03-08T08:11:33.777Z,98890.72
2018-03-08T08:14:02.077Z,98900.25
2018-03-08T08:16:30.410Z,98908.33
2018-03-08T08:18:58.724Z,98898.83
2018-03-08T08:21:27.050Z,98897.98
2018-03-08T08:23:55.376Z,98907.09
2018-03-08T08:26:23.728Z,98905.70
2018-03-08T08:28:52.086Z,98908.78
2018-03-08T08:31:20.508Z,98920.95
2018-03-08T08:33:48.834Z,98928.55
2018-03-08T08:36:17.153Z,98931.23
2018-03-08T08:38:45.578Z,98937.32
2018-03-08T08:41:13.896Z,98927.16
2018-03-08T08:43:42.223Z,98937.50
2018-03-08T08:46:10.555Z,98944.92
2018-03-08T08:48:38.884Z,98941.41
2018-03-08T08:51:07.215Z,98941.70
2018-03-08T08:53:36.286Z,98945.36
2018-03-08T08:56:04.589Z,98948.93
2018-03-08T08:58:32.920Z,98957.31
2018-03-08T09:01:01.312Z,98959.09
2018-03-08T09:03:29.662Z,98956.14
2018-03-08T09:05:57.999Z,98969.41
2018-03-08T09:08:26.324Z,98963.56
2018-03-08T09:10:54.654Z,98973.06
2018-03-08T09:13:22.965Z,98969.06
2018-03-08T09:15:51.315Z,98974.75
2018-03-08T09:18:19.844Z,98980.70
2018-03-08T09:20:48.175Z,98977.77
2018-03-08T09:23:16.582Z,98974.44
2018-03-08T09:25:44.906Z,98974.89
2018-03-08T09:28:13.323Z,98980.95
2018-03-08T09:30:41.648Z,98972.45
2018-03-08T09:33:09.975Z,98967.28
2018-03-08T09:35:38.290Z,98968.50
2018-03-08T09:38:06.593Z,98965.56
2018-03-08T09:40:37.735Z,98970.73
2018-03-08T09:43:06.062Z,98962.89
2018-03-08T09:45:34.417Z,98966.31
2018-03-08T09:48:02.836Z,98964.41
2018-03-08T09:50:31.153Z,98988.00
2018-03-08T09:53:00.282Z,98971.29
2018-03-08T09:55:28.683Z,98983.94
2018-03-08T09:57:56.982Z,98980.94
2018-03-08T10:00:25.308Z,98977.55
2018-03-08T10:02:53.661Z,98987.67
2018-03-08T10:05:22.045Z,98979.77
2018-03-08T10:07:50.394Z,98996.66
2018-03-08T10:10:18.706Z,98994.69
2018-03-08T10:12:47.062Z,98984.48
2018-03-08T10:15:15.350Z,99005.73
2018-03-08T10:17:43.710Z,98999.41
2018-03-08T10:20:12.097Z,99002.25
2018-03-08T10:22:40.481Z,99003.29
2018-03-08T10:25:08.869Z,99016.87
2018-03-08T10:27:37.278Z,99018.64
2018-03-08T10:30:05.666Z,99010.13
2018-03-08T10:32:34.004Z,99021.27
2018-03-08T10:35:02.319Z,99018.16
2018-03-08T10:37:30.630Z,99029.53
2018-03-08T10:39:59.014Z,99034.79
2018-03-08T10:44:55.651Z,99034.14
2018-03-08T10:47:23.988Z,99026.33
2018-03-08T10:49:52.314Z,99007.34
2018-03-08T10:52:20.620Z,99044.77
2018-03-08T10:54:48.940Z,99022.43
2018-03-08T10:57:17.262Z,99025.65
2018-03-08T10:59:45.640Z,99015.68
2018-03-08T11:02:17.293Z,99023.44
2018-03-08T11:04:51.215Z,99028.41
2018-03-08T11:07:19.906Z,99042.04
2018-03-08T11:09:48.226Z,99033.05
2018-03-08T11:12:16.536Z,99048.21
2018-03-08T11:14:44.947Z,99026.85
2018-03-08T11:17:13.258Z,99038.11
2018-03-08T11:19:41.638Z,99030.15
2018-03-08T11:22:09.942Z,99063.14
2018-03-08T11:24:38.368Z,99037.05
2018-03-08T11:27:06.764Z,99026.38
2018-03-08T11:29:35.090Z,99022.26
2018-03-08T11:32:03.417Z,99037.97
2018-03-08T11:34:31.826Z,99037.41
2018-03-08T11:37:01.927Z,99032.33
2018-03-08T11:39:30.965Z,99043.95
2018-03-08T11:41:59.298Z,99043.04
2018-03-08T11:44:27.697Z,99029.20
2018-03-08T11:46:56.288Z,99039.44
2018-03-08T11:49:24.642Z,99023.66
2018-03-08T11:51:53.029Z,99049.96
2018-03-08T11:54:21.612Z,99051.48
2018-03-08T11:56:50.010Z,99044.13
2018-03-08T11:59:18.344Z,99044.34
2018-03-08T12:01:46.687Z,99045.45
2018-03-08T12:04:15.090Z,99044.80
2018-03-08T12:06:43.502Z,99039.05
2018-03-08T12:09:11.865Z,99036.46
2018-03-08T12:11:40.175Z,99034.55
2018-03-08T12:14:08.535Z,99041.91
2018-03-08T12:16:36.877Z,99038.47
2018-03-08T12:19:06.465Z,99034.31
2018-03-08T12:21:35.135Z,99032.98
2018-03-08T12:24:03.537Z,99034.89
2018-03-08T12:26:31.907Z,99031.64
2018-03-08T12:29:00.223Z,99025.12
2018-03-08T12:31:28.548Z,99026.41
2018-03-08T12:33:57.309Z,99034.23
2018-03-08T12:36:25.641Z,99033.51
2018-03-08T12:38:53.956Z,99036.91
2018-03-08T12:41:22.287Z,99025.86
2018-03-08T12:43:50.591Z,99014.91
2018-03-08T12:46:18.962Z,99016.83
2018-03-08T12:48:47.318Z,99005.60
2018-03-08T12:51:15.628Z,99013.05
2018-03-08T12:53:45.720Z,99010.69
2018-03-08T12:56:14.079Z,99004.62
2018-03-08T12:58:42.419Z,99003.67
2018-03-08T13:01:10.825Z,98998.86
2018-03-08T13:03:39.162Z,99007.28
2018-03-08T13:06:09.046Z,98999.07
2018-03-08T13:08:37.417Z,98998.72
2018-03-08T13:11:05.753Z,98997.04
2018-03-08T13:13:34.086Z,98987.82
2018-03-08T13:16:02.408Z,98984.77
2018-03-08T13:18:30.743Z,98982.59
2018-03-08T13:20:59.063Z,98990.69
2018-03-08T13:23:27.503Z,98979.71
2018-03-08T13:25:55.953Z,98993.93
2018-03-08T13:28:24.275Z,98986.41
2018-03-08T13:30:52.973Z,98988.05
2018-03-08T13:33:21.310Z,98986.66
2018-03-08T13:35:49.611Z,98974.63
2018-03-08T13:38:18.055Z,98983.77
2018-03-08T13:40:46.407Z,98975.03
2018-03-08T13:43:14.714Z,98988.15
2018-03-08T13:45:43.077Z,98989.79
2018-03-08T13:48:11.393Z,98989.80
2018-03-08T13:50:39.849Z,98997.11
2018-03-08T13:53:08.198Z,98988.44
2018-03-08T13:55:36.555Z,98993.31
2018-03-08T13:58:05.002Z,98980.05
2018-03-08T14:00:33.526Z,98987.84
2018-03-08T14:03:01.967Z,98979.09
2018-03-08T14:05:30.355Z,98984.64
2018-03-08T14:07:58.662Z,98989.27
2018-03-08T14:10:27.034Z,98990.91
2018-03-08T14:12:55.343Z,98995.44
2018-03-08T14:15:23.667Z,98985.98
2018-03-08T14:17:52.029Z,98975.53
2018-03-08T14:20:20.417Z,98975.08
2018-03-08T14:22:48.742Z,98976.05
2018-03-08T14:25:17.124Z,98976.63
2018-03-08T14:27:45.447Z,98972.84
2018-03-08T14:30:14.117Z,98977.90
2018-03-08T14:32:42.444Z,98975.11
2018-03-08T14:35:10.851Z,98972.59
2018-03-08T14:37:39.292Z,98972.06
2018-03-08T14:40:07.617Z,98963.67
2018-03-08T14:42:35.996Z,98970.95
2018-03-08T14:45:04.340Z,98966.53
2018-03-08T14:47:32.728Z,98961.84
2018-03-08T14:50:01.117Z,98963.87
2018-03-08T14:52:29.418Z,98961.53
2018-03-08T14:54:57.743Z,98963.05
2018-03-08T14:57:26.057Z,98953.12
2018-03-08T14:59:54.466Z,98959.02
2018-03-08T15:02:22.785Z,98954.74
2018-03-08T15:04:51.194Z,98973.42
2018-03-08T15:07:19.518Z,98955.44
2018-03-08T15:09:47.855Z,98959.58
2018-03-08T15:12:16.215Z,98959.48
2018-03-08T15:14:44.523Z,98961.15
2018-03-08T15:17:12.901Z,98957.77
2018-03-08T15:19:41.287Z,98951.39
2018-03-08T15:22:09.610Z,98961.57
2018-03-08T15:24:37.926Z,98964.34
2018-03-08T15:27:06.477Z,98954.77
2018-03-08T15:29:34.794Z,98948.66
2018-03-08T15:32:03.133Z,98949.42
2018-03-08T15:34:31.532Z,98952.53
2018-03-08T15:36:59.919Z,98955.12
2018-03-08T15:39:28.228Z,98950.72
2018-03-08T15:41:58.179Z,98943.73
2018-03-08T15:44:26.880Z,98946.43
2018-03-08T15:46:55.209Z,98940.53
2018-03-08T15:49:23.519Z,98951.18
2018-03-08T15:51:51.918Z,98952.80
2018-03-08T15:54:20.258Z,98950.11
2018-03-08T15:56:48.586Z,98954.01
2018-03-08T15:59:16.907Z,98953.34
2018-03-08T16:01:45.250Z,98960.69
2018-03-08T16:04:13.582Z,98963.63
2018-03-08T16:09:59.856Z,98964.14
2018-03-08T16:12:28.284Z,98963.28
2018-03-08T16:14:56.644Z,98959.13
2018-03-08T16:17:24.955Z,98960.56
2018-03-08T16:19:53.270Z,98958.47
2018-03-08T16:22:21.680Z,98964.91
2018-03-08T16:24:50.018Z,98957.95
2018-03-08T16:27:18.361Z,98961.52
2018-03-08T16:29:46.678Z,98953.61
2018-03-08T16:32:14.971Z,98954.45
2018-03-08T16:34:43.380Z,98945.65
2018-03-08T16:37:11.927Z,98957.75
2018-03-08T16:39:40.275Z,98956.03
2018-03-08T16:42:08.601Z,98946.02
2018-03-08T16:44:37.013Z,98947.30
2018-03-08T16:47:05.243Z,98945.41
2018-03-08T16:49:33.554Z,98948.86
2018-03-08T16:52:01.913Z,98943.41
2018-03-08T16:54:30.225Z,98948.86
2018-03-08T16:56:58.590Z,98949.35
2018-03-08T16:59:26.905Z,98947.22
2018-03-08T17:01:55.238Z,98939.55
2018-03-08T17:04:23.592Z,98938.64
2018-03-08T17:06:52.033Z,98934.63
2018-03-08T17:09:20.493Z,98937.94
2018-03-08T17:11:48.806Z,98936.70
2018-03-08T17:14:17.107Z,98937.95
2018-03-08T17:16:45.538Z,98940.41
2018-03-08T17:19:13.921Z,98943.80
2018-03-08T17:21:42.238Z,98944.13
2018-03-08T17:24:10.548Z,98942.98
2018-03-08T17:26:38.865Z,98948.38
2018-03-08T17:29:07.164Z,98949.98
2018-03-08T17:31:35.569Z,98947.25
2018-03-08T17:34:03.970Z,98942.51
2018-03-08T17:36:32.354Z,98943.14
2018-03-08T17:39:00.662Z,98939.50
2018-03-08T17:41:29.191Z,98943.45
2018-03-08T17:43:57.522Z,98941.33
2018-03-08T17:46:25.862Z,98943.73
2018-03-08T17:48:54.301Z,98941.06
2018-03-08T17:51:22.642Z,98944.94
2018-03-08T17:53:51.342Z,98940.43
2018-03-08T17:56:19.710Z,98942.32
2018-03-08T17:58:48.044Z,98950.70
2018-03-08T18:01:16.513Z,98952.43
2018-03-08T18:03:44.837Z,98947.48
2018-03-08T18:06:13.147Z,98949.59
2018-03-08T18:08:41.467Z,98941.55
2018-03-08T18:11:09.790Z,98942.86
2018-03-08T18:13:38.147Z,98940.47
2018-03-08T18:16:06.445Z,98946.21
2018-03-08T18:18:34.838Z,98943.30
2018-03-08T18:21:03.229Z,98939.34
2018-03-08T18:23:31.546Z,98946.09
2018-03-08T18:25:59.903Z,98952.15
2018-03-08T18:28:28.301Z,98948.28
2018-03-08T18:30:56.709Z,98944.77
2018-03-08T18:33:25.097Z,98939.20
2018-03-08T18:35:53.531Z,98935.63
2018-03-08T18:38:21.846Z,98936.20
2018-03-08T18:40:50.490Z,98932.91
2018-03-08T18:43:19.019Z,98944.84
2018-03-08T18:45:47.325Z,98939.70
2018-03-08T18:48:15.637Z,98942.49
2018-03-08T18:50:43.958Z,98938.95
2018-03-08T18:53:13.102Z,98936.04
2018-03-08T18:55:41.430Z,98936.45
2018-03-08T18:58:29.651Z,98939.09
2018-03-08T19:00:57.957Z,98935.38
2018-03-08T19:03:26.274Z,98938.89
2018-03-08T19:05:54.589Z,98936.75
2018-03-08T19:08:22.957Z,98923.87
2018-03-08T19:10:51.351Z,98910.02
2018-03-08T19:13:19.685Z,98899.22
2018-03-08T19:15:48.017Z,98898.94
2018-03-08T19:18:16.319Z,98901.13
2018-03-08T19:20:44.661Z,98885.77
2018-03-08T19:23:12.983Z,98893.05
2018-03-08T19:25:41.398Z,98888.63
2018-03-08T19:28:09.789Z,98891.58
2018-03-08T19:30:38.165Z,98895.27
2018-03-08T19:33:06.485Z,98894.80
2018-03-08T19:35:34.900Z,98888.33
2018-03-08T19:38:03.207Z,98890.59
2018-03-08T19:40:31.527Z,98873.13
2018-03-08T19:42:59.842Z,98878.84
2018-03-08T19:45:28.258Z,98883.89
2018-03-08T19:47:56.958Z,98871.55
2018-03-08T19:50:25.279Z,98868.62
2018-03-08T19:52:53.636Z,98859.55
2018-03-08T19:55:22.006Z,98871.25
2018-03-08T19:57:50.335Z,98860.22
2018-03-08T20:00:18.959Z,98863.37
2018-03-08T20:02:47.597Z,98861.01
2018-03-08T20:05:15.898Z,98860.59
2018-03-08T20:07:44.363Z,98858.56
2018-03-08T20:10:12.666Z,98866.13
2018-03-08T20:12:41.012Z,98858.95
2018-03-08T20:15:09.701Z,98855.53
2018-03-08T20:17:38.038Z,98856.08
2018-03-08T20:20:06.350Z,98857.89
2018-03-08T20:22:34.678Z,98850.95
2018-03-08T20:25:02.998Z,98843.88
2018-03-08T20:27:31.457Z,98848.62
2018-03-08T20:29:59.759Z,98842.33
2018-03-08T20:32:28.298Z,98842.97
2018-03-08T20:34:56.613Z,98840.82
2018-03-08T20:37:24.949Z,98837.77
2018-03-08T20:42:14.486Z,98832.77
2018-03-08T20:44:42.804Z,98829.81
2018-03-08T20:47:11.238Z,98829.63
2018-03-08T20:49:39.649Z,98831.56
2018-03-08T20:52:07.968Z,98830.65
2018-03-08T20:54:36.296Z,98824.90
2018-03-08T20:57:04.624Z,98824.05
2018-03-08T20:59:32.938Z,98825.00
2018-03-08T21:02:01.330Z,98816.55
2018-03-08T21:04:29.637Z,98812.52
2018-03-08T21:06:58.050Z,98808.52
2018-03-08T21:09:26.468Z,98812.95
2018-03-08T21:11:54.774Z,98821.55
2018-03-08T21:14:23.114Z,98824.80
2018-03-08T21:16:51.409Z,98831.11
2018-03-08T21:19:19.765Z,98822.38
2018-03-08T21:21:48.115Z,98816.02
2018-03-08T21:24:16.460Z,98816.38
2018-03-08T21:26:44.792Z,98816.11
2018-03-08T21:29:13.187Z,98814.89
2018-03-08T21:31:41.553Z,98812.73
2018-03-08T21:34:09.891Z,98813.35
2018-03-08T21:36:45.192Z,98805.05
2018-03-08T21:39:17.737Z,98805.00
2018-03-08T21:41:46.047Z,98798.89
2018-03-08T21:44:14.452Z,98791.13
2018-03-08T21:46:42.862Z,98792.69
2018-03-08T21:49:11.253Z,98792.17
2018-03-08T21:51:39.587Z,98782.23
2018-03-08T21:54:08.057Z,98774.63
2018-03-08T21:56:36.372Z,98783.48
2018-03-08T21:59:04.722Z,98774.15
2018-03-08T22:01:33.038Z,98775.33
2018-03-08T22:04:01.418Z,98781.16
2018-03-08T22:06:30.552Z,98789.98
2018-03-08T22:08:58.905Z,98800.42
2018-03-08T22:11:27.319Z,98825.16
2018-03-08T22:13:55.712Z,98817.86
2018-03-08T22:16:24.079Z,98816.09
2018-03-08T22:18:52.390Z,98799.63
2018-03-08T22:21:20.774Z,98803.36
2018-03-08T22:23:49.158Z,98785.97
2018-03-08T22:26:17.649Z,98768.77
2018-03-08T22:28:46.053Z,98757.63
2018-03-08T22:31:14.370Z,98769.59
2018-03-08T22:33:42.690Z,98756.04
2018-03-08T22:36:11.101Z,98744.88
2018-03-08T22:38:39.503Z,98752.81
2018-03-08T22:41:07.984Z,98753.30
2018-03-08T22:43:36.383Z,98761.25
2018-03-08T22:46:04.698Z,98760.02
2018-03-08T22:48:33.010Z,98756.01
2018-03-08T22:51:01.373Z,98760.58
2018-03-08T22:53:29.682Z,98769.64
2018-03-08T22:55:58.002Z,98773.00
2018-03-08T22:58:26.326Z,98778.73
2018-03-08T23:00:54.817Z,98784.34
2018-03-08T23:03:29.201Z,98794.91
2018-03-08T23:05:57.941Z,98795.70
2018-03-08T23:08:26.251Z,98784.23
2018-03-08T23:10:54.677Z,98808.28
2018-03-08T23:13:22.998Z,98814.48
2018-03-08T23:15:51.315Z,98815.95
2018-03-08T23:18:19.650Z,98831.17
2018-03-08T23:20:48.201Z,98835.13
2018-03-08T23:23:16.507Z,98864.75
2018-03-08T23:25:44.817Z,98858.41
2018-03-08T23:28:13.126Z,98845.09
2018-03-08T23:30:41.434Z,98856.23
2018-03-08T23:33:10.345Z,98867.00
2018-03-08T23:35:38.658Z,98851.83
2018-03-08T23:38:07.486Z,98855.96
2018-03-08T23:40:35.798Z,98852.76
2018-03-08T23:43:04.353Z,98882.75
2018-03-08T23:45:32.668Z,98904.56
2018-03-08T23:48:00.988Z,98916.09
2018-03-08T23:50:29.295Z,98920.63
2018-03-08T23:52:57.646Z,98920.42
2018-03-08T23:55:25.950Z,98914.54
2018-03-08T23:57:54.264Z,98933.04
